Time;durP1;ratioP1;P1;durP2;ratioP2;P2;SDS_P1;SDS_P2;PMS_P1;PMS_P2;Temp;Humidity;BMP_temperature;BMP_pressure;BME280_temperature;BME280_humidity;BME280_pressure;Samples;Min_cycle;Max_cycle;Signal;HPM_P1;HPM_P2
2021/05/17 00:02:15;;;;;;;2.93;0.97;;;;;;;;;;5027307;28;20223;-59
2021/05/17 00:04:46;;;;;;;1.90;1.27;;;;;;;;;;5028479;28;20606;-58
2021/05/17 00:07:11;;;;;;;1.30;1.20;;;;;;;;;;5026256;28;20357;-59
2021/05/17 00:09:40;;;;;;;3.20;1.20;;;;;;;;;;5028769;28;20179;-56
2021/05/17 00:12:06;;;;;;;2.57;1.13;;;;;;;;;;5027049;28;20201;-56
2021/05/17 00:14:36;;;;;;;1.53;1.00;;;;;;;;;;5024230;28;20190;-59
2021/05/17 00:17:09;;;;;;;1.20;0.97;;;;;;;;;;5026992;28;20608;-58
2021/05/17 00:19:36;;;;;;;1.37;0.80;;;;;;;;;;5020487;28;20602;-58
2021/05/17 00:22:02;;;;;;;2.37;0.93;;;;;;;;;;5018267;28;20256;-59
2021/05/17 00:24:30;;;;;;;1.27;0.80;;;;;;;;;;5025897;28;20202;-57
2021/05/17 00:26:59;;;;;;;1.80;0.70;;;;;;;;;;5022262;28;20496;-58
2021/05/17 00:29:31;;;;;;;1.03;0.63;;;;;;;;;;5034665;28;20194;-57
2021/05/17 00:31:59;;;;;;;0.90;0.90;;;;;;;;;;5028919;28;20273;-58
2021/05/17 00:34:25;;;;;;;0.80;0.80;;;;;;;;;;5025356;28;20232;-60
2021/05/17 00:36:50;;;;;;;1.30;0.70;;;;;;;;;;5031502;28;20210;-57
2021/05/17 00:39:18;;;;;;;0.83;0.70;;;;;;;;;;5026003;28;20195;-57
2021/05/17 00:41:48;;;;;;;1.17;0.60;;;;;;;;;;5028237;28;20295;-58
2021/05/17 00:44:16;;;;;;;1.33;0.70;;;;;;;;;;5028455;28;20190;-57
2021/05/17 00:46:44;;;;;;;0.97;0.73;;;;;;;;;;5023884;28;20282;-58
2021/05/17 00:49:10;;;;;;;1.00;0.70;;;;;;;;;;5030757;28;20194;-59
2021/05/17 00:51:38;;;;;;;0.97;0.77;;;;;;;;;;5032098;28;20193;-57
2021/05/17 00:54:09;;;;;;;1.80;0.60;;;;;;;;;;5031921;28;20193;-56
2021/05/17 00:56:40;;;;;;;1.67;0.80;;;;;;;;;;5032414;28;20282;-58
2021/05/17 00:59:08;;;;;;;3.33;0.80;;;;;;;;;;5029605;28;20222;-60
2021/05/17 01:01:34;;;;;;;0.70;0.70;;;;;;;;;;5028677;28;20240;-58
2021/05/17 01:04:00;;;;;;;1.93;0.67;;;;;;;;;;5031574;28;20186;-60
2021/05/17 01:06:28;;;;;;;0.60;0.60;;;;;;;;;;5032637;28;20217;-60
2021/05/17 01:09:10;;;;;;;3.30;0.80;;;;;;;;;;5032299;28;20457;-58
2021/05/17 01:11:36;;;;;;;2.63;0.70;;;;;;;;;;5027576;28;20611;-58
2021/05/17 01:14:08;;;;;;;0.70;0.70;;;;;;;;;;5028554;28;20199;-57
2021/05/17 01:16:36;;;;;;;2.37;0.93;;;;;;;;;;5030825;28;20732;-58
2021/05/17 01:19:05;;;;;;;0.70;0.70;;;;;;;;;;5026958;28;20244;-57
2021/05/17 01:21:36;;;;;;;2.27;0.80;;;;;;;;;;5027574;28;20698;-57
2021/05/17 01:24:05;;;;;;;1.83;0.60;;;;;;;;;;5033055;28;20452;-58
2021/05/17 01:26:34;;;;;;;0.77;0.60;;;;;;;;;;5028557;28;20248;-58
2021/05/17 01:29:04;;;;;;;0.80;0.70;;;;;;;;;;5036486;28;20186;-58
2021/05/17 01:31:30;;;;;;;1.73;0.93;;;;;;;;;;5030206;28;20717;-59
2021/05/17 01:33:55;;;;;;;2.10;0.87;;;;;;;;;;5029461;28;20175;-56
2021/05/17 01:36:23;;;;;;;1.63;0.70;;;;;;;;;;5025517;28;20328;-57
2021/05/17 01:38:52;;;;;;;1.40;0.70;;;;;;;;;;5026493;28;20708;-59
2021/05/17 01:41:21;;;;;;;1.70;0.70;;;;;;;;;;5028815;28;20552;-58
2021/05/17 01:43:52;;;;;;;1.30;0.80;;;;;;;;;;5037047;28;20183;-57
2021/05/17 01:46:31;;;;;;;1.07;0.70;;;;;;;;;;5021647;28;20226;-58
2021/05/17 01:48:59;;;;;;;0.93;0.70;;;;;;;;;;5025315;28;20197;-59
2021/05/17 01:51:27;;;;;;;1.00;0.70;;;;;;;;;;5023491;28;20183;-60
2021/05/17 01:53:53;;;;;;;1.87;0.90;;;;;;;;;;5028837;28;20273;-59
2021/05/17 01:56:23;;;;;;;5.37;0.90;;;;;;;;;;5022770;28;20294;-58
2021/05/17 01:58:49;;;;;;;1.77;0.87;;;;;;;;;;5024544;28;20198;-57
2021/05/17 02:01:16;;;;;;;2.00;0.70;;;;;;;;;;5031651;28;20191;-56
2021/05/17 02:03:48;;;;;;;2.63;0.80;;;;;;;;;;5028954;28;20202;-56
2021/05/17 02:06:15;;;;;;;1.10;0.90;;;;;;;;;;5030534;28;20212;-58
2021/05/17 02:08:48;;;;;;;2.47;1.17;;;;;;;;;;5028174;28;20591;-57
2021/05/17 02:11:15;;;;;;;1.00;0.87;;;;;;;;;;5023172;28;20257;-59
2021/05/17 02:13:42;;;;;;;1.23;0.80;;;;;;;;;;5027019;28;20209;-59
2021/05/17 02:16:11;;;;;;;1.03;0.93;;;;;;;;;;5028122;28;20214;-57
2021/05/17 02:18:38;;;;;;;2.70;0.80;;;;;;;;;;5029725;28;20197;-59
2021/05/17 02:21:07;;;;;;;1.33;0.80;;;;;;;;;;5035648;28;20716;-58
2021/05/17 02:23:35;;;;;;;1.03;1.00;;;;;;;;;;5022904;28;20191;-59
2021/05/17 02:26:03;;;;;;;1.43;0.97;;;;;;;;;;5031438;28;20255;-58
2021/05/17 02:28:29;;;;;;;2.63;1.10;;;;;;;;;;5029342;28;20658;-57
2021/05/17 02:30:55;;;;;;;1.60;1.20;;;;;;;;;;5032293;28;20183;-57
2021/05/17 02:33:20;;;;;;;1.90;1.00;;;;;;;;;;5031995;28;20201;-58
2021/05/17 02:35:51;;;;;;;2.43;1.10;;;;;;;;;;5020226;28;20199;-58
2021/05/17 02:38:17;;;;;;;3.17;1.30;;;;;;;;;;5028622;28;20252;-60
2021/05/17 02:40:45;;;;;;;2.30;1.10;;;;;;;;;;5030783;28;20187;-61
2021/05/17 02:43:12;;;;;;;3.83;0.90;;;;;;;;;;5031125;28;20270;-59
2021/05/17 02:45:40;;;;;;;3.90;1.23;;;;;;;;;;5026506;28;20218;-58
2021/05/17 02:48:09;;;;;;;2.57;1.00;;;;;;;;;;5034363;28;20210;-57
2021/05/17 02:50:43;;;;;;;1.00;0.80;;;;;;;;;;5024213;28;20186;-58
2021/05/17 02:53:35;;;;;;;1.57;1.03;;;;;;;;;;5032285;28;20193;-59
2021/05/17 02:56:15;;;;;;;2.50;1.00;;;;;;;;;;5024305;28;20575;-58
2021/05/17 02:58:45;;;;;;;4.83;1.10;;;;;;;;;;5027231;28;20704;-60
2021/05/17 03:01:50;;;;;;;1.47;0.90;;;;;;;;;;5031982;28;20220;-58
2021/05/17 03:04:21;;;;;;;1.40;1.13;;;;;;;;;;5028599;28;20249;-58
2021/05/17 03:07:03;;;;;;;2.77;1.30;;;;;;;;;;5027166;28;20752;-58
2021/05/17 03:09:34;;;;;;;2.00;0.97;;;;;;;;;;5027355;28;20223;-57
2021/05/17 03:12:04;;;;;;;1.27;0.90;;;;;;;;;;5029280;28;20252;-58
2021/05/17 03:14:30;;;;;;;2.93;1.13;;;;;;;;;;5028615;28;20187;-62
2021/05/17 03:16:59;;;;;;;2.13;1.23;;;;;;;;;;5029028;28;20630;-58
2021/05/17 03:19:29;;;;;;;1.63;1.13;;;;;;;;;;5027817;28;20241;-60
2021/05/17 03:22:01;;;;;;;1.20;1.10;;;;;;;;;;5026263;28;20194;-59
2021/05/17 03:24:32;;;;;;;1.73;1.10;;;;;;;;;;5028153;28;20222;-58
2021/05/17 03:27:08;;;;;;;1.83;1.00;;;;;;;;;;5027548;28;20245;-58
2021/05/17 03:29:33;;;;;;;0.93;0.90;;;;;;;;;;5027003;28;20527;-59
2021/05/17 03:32:01;;;;;;;2.90;1.40;;;;;;;;;;5031909;28;20627;-56
2021/05/17 03:34:26;;;;;;;1.40;1.10;;;;;;;;;;5030464;28;20281;-59
2021/05/17 03:36:54;;;;;;;1.53;0.93;;;;;;;;;;5026961;28;20210;-59
2021/05/17 03:39:19;;;;;;;2.47;1.30;;;;;;;;;;5026076;28;20190;-56
2021/05/17 03:41:45;;;;;;;1.23;1.07;;;;;;;;;;5029577;28;20781;-59
2021/05/17 03:44:12;;;;;;;2.80;1.00;;;;;;;;;;5033598;28;20183;-60
2021/05/17 03:46:38;;;;;;;1.87;1.20;;;;;;;;;;5030184;28;20214;-57
2021/05/17 03:49:05;;;;;;;2.10;1.10;;;;;;;;;;5033003;28;20720;-59
2021/05/17 03:51:35;;;;;;;1.57;1.17;;;;;;;;;;5030183;28;20190;-59
2021/05/17 03:54:00;;;;;;;1.43;1.10;;;;;;;;;;5027534;28;20750;-58
2021/05/17 03:56:28;;;;;;;1.77;1.47;;;;;;;;;;5028039;28;20289;-57
2021/05/17 03:58:53;;;;;;;6.63;1.23;;;;;;;;;;5022381;28;20229;-56
2021/05/17 04:01:21;;;;;;;4.53;1.43;;;;;;;;;;5024653;28;20207;-56
2021/05/17 04:03:49;;;;;;;2.00;1.30;;;;;;;;;;5028286;28;20214;-59
2021/05/17 04:06:23;;;;;;;2.90;1.17;;;;;;;;;;5027899;28;20613;-60
2021/05/17 04:14:22;;;;;;;1.53;1.03;;;;;;;;;;5030703;28;20290;-59
2021/05/17 04:16:47;;;;;;;2.00;1.30;;;;;;;;;;5027221;28;20293;-58
2021/05/17 04:19:17;;;;;;;2.10;1.10;;;;;;;;;;5026331;28;20566;-58
2021/05/17 04:21:42;;;;;;;4.37;1.40;;;;;;;;;;5031283;28;20192;-58
2021/05/17 04:24:10;;;;;;;2.80;1.33;;;;;;;;;;5033382;28;20190;-59
2021/05/17 04:26:36;;;;;;;2.27;1.70;;;;;;;;;;5025288;28;20217;-59
2021/05/17 04:29:05;;;;;;;1.43;1.33;;;;;;;;;;5034710;28;20646;-59
2021/05/17 04:31:35;;;;;;;1.40;1.30;;;;;;;;;;5027077;28;20194;-58
2021/05/17 04:34:01;;;;;;;1.60;1.50;;;;;;;;;;5030585;28;20193;-58
2021/05/17 04:36:36;;;;;;;4.03;1.57;;;;;;;;;;5026154;28;20213;-59
2021/05/17 04:39:04;;;;;;;2.07;1.70;;;;;;;;;;5027743;28;20189;-56
2021/05/17 04:41:29;;;;;;;3.17;1.50;;;;;;;;;;5027711;28;20265;-58
2021/05/17 04:43:57;;;;;;;2.53;1.60;;;;;;;;;;5023128;28;20191;-58
2021/05/17 04:46:27;;;;;;;2.23;1.67;;;;;;;;;;5011858;28;20217;-59
2021/05/17 04:48:52;;;;;;;2.73;1.80;;;;;;;;;;5023006;28;20818;-57
2021/05/17 04:51:20;;;;;;;2.40;1.70;;;;;;;;;;5022099;28;20286;-57
2021/05/17 04:53:48;;;;;;;5.43;1.80;;;;;;;;;;5021001;28;20203;-58
2021/05/17 04:56:13;;;;;;;2.63;1.80;;;;;;;;;;5030103;28;20600;-58
2021/05/17 04:58:39;;;;;;;2.87;1.60;;;;;;;;;;5026972;28;20191;-59
2021/05/17 05:01:07;;;;;;;2.70;1.40;;;;;;;;;;5026780;28;20192;-58
2021/05/17 05:03:33;;;;;;;1.70;1.50;;;;;;;;;;5022834;28;20569;-60
2021/05/17 05:06:01;;;;;;;3.30;1.60;;;;;;;;;;5029285;28;20211;-57
2021/05/17 05:08:26;;;;;;;4.33;1.77;;;;;;;;;;5029488;28;20616;-57
2021/05/17 05:10:52;;;;;;;2.93;1.90;;;;;;;;;;5026480;28;20190;-58
2021/05/17 05:13:18;;;;;;;1.67;1.57;;;;;;;;;;5026948;28;20203;-58
2021/05/17 05:15:45;;;;;;;2.40;1.63;;;;;;;;;;5033040;28;20214;-60
2021/05/17 05:18:13;;;;;;;3.17;1.57;;;;;;;;;;5026261;28;20197;-59
2021/05/17 05:20:41;;;;;;;3.07;1.60;;;;;;;;;;5026336;28;20348;-60
2021/05/17 05:23:17;;;;;;;1.70;1.50;;;;;;;;;;5022779;28;20186;-57
2021/05/17 05:28:29;;;;;;;1.97;1.40;;;;;;;;;;5030032;28;20644;-56
2021/05/17 05:31:05;;;;;;;2.73;1.90;;;;;;;;;;5027155;28;20585;-59
2021/05/17 05:33:28;;;;;;;4.77;1.90;;;;;;;;;;5031033;28;20251;-57
2021/05/17 05:35:53;;;;;;;2.73;1.90;;;;;;;;;;5036525;28;20225;-59
2021/05/17 05:38:18;;;;;;;2.53;1.73;;;;;;;;;;5030753;28;20230;-60
2021/05/17 05:40:47;;;;;;;2.10;1.73;;;;;;;;;;5027791;28;20646;-60
2021/05/17 05:43:12;;;;;;;3.33;2.07;;;;;;;;;;5017538;28;20199;-60
2021/05/17 05:45:44;;;;;;;3.23;2.03;;;;;;;;;;5023591;28;20674;-58
2021/05/17 05:48:10;;;;;;;2.40;1.90;;;;;;;;;;5024107;28;20334;-59
2021/05/17 05:50:38;;;;;;;3.40;2.33;;;;;;;;;;5024102;28;20289;-57
2021/05/17 05:53:03;;;;;;;3.20;2.20;;;;;;;;;;5034149;28;20728;-59
2021/05/17 05:55:28;;;;;;;4.23;2.27;;;;;;;;;;5028799;28;20306;-60
2021/05/17 05:57:56;;;;;;;5.27;2.40;;;;;;;;;;5026310;28;20215;-59
2021/05/17 06:00:22;;;;;;;2.43;1.87;;;;;;;;;;5017408;28;20214;-59
2021/05/17 06:02:48;;;;;;;4.87;2.80;;;;;;;;;;5016430;28;20187;-57
2021/05/17 06:05:15;;;;;;;3.93;2.77;;;;;;;;;;5017184;28;20578;-59
2021/05/17 06:07:41;;;;;;;3.70;2.40;;;;;;;;;;5027895;28;20357;-59
2021/05/17 06:10:09;;;;;;;4.20;2.80;;;;;;;;;;5021389;28;20655;-56
2021/05/17 06:12:37;;;;;;;3.27;2.13;;;;;;;;;;5018650;28;20283;-59
2021/05/17 06:15:07;;;;;;;4.30;2.43;;;;;;;;;;5019598;28;20376;-60
2021/05/17 06:17:36;;;;;;;6.50;2.70;;;;;;;;;;5017353;28;20197;-61
2021/05/17 06:20:03;;;;;;;4.50;2.87;;;;;;;;;;5028143;28;20576;-60
2021/05/17 06:22:35;;;;;;;3.33;2.50;;;;;;;;;;5027981;28;20644;-65
2021/05/17 06:25:03;;;;;;;4.53;2.83;;;;;;;;;;5020965;28;20418;-57
2021/05/17 06:27:34;;;;;;;3.60;2.57;;;;;;;;;;5019665;28;20203;-60
2021/05/17 06:30:06;;;;;;;4.63;2.83;;;;;;;;;;5027150;28;20561;-58
2021/05/17 06:32:32;;;;;;;4.73;3.00;;;;;;;;;;5024154;28;20190;-61
2021/05/17 06:35:01;;;;;;;3.80;2.27;;;;;;;;;;5026149;28;20217;-58
2021/05/17 06:37:26;;;;;;;6.43;3.10;;;;;;;;;;5023071;28;20206;-60
2021/05/17 06:39:56;;;;;;;7.43;2.80;;;;;;;;;;5022010;28;20218;-59
2021/05/17 06:42:21;;;;;;;5.50;3.30;;;;;;;;;;5019989;28;20195;-58
2021/05/17 06:44:49;;;;;;;5.20;2.93;;;;;;;;;;5017623;28;20191;-62
2021/05/17 06:47:18;;;;;;;6.00;3.37;;;;;;;;;;5020702;28;20218;-61
2021/05/17 06:49:46;;;;;;;4.20;3.00;;;;;;;;;;5031287;28;20182;-60
2021/05/17 06:52:13;;;;;;;7.93;3.37;;;;;;;;;;5027081;28;20205;-61
2021/05/17 06:54:41;;;;;;;7.80;3.27;;;;;;;;;;5020430;28;20198;-60
2021/05/17 06:59:45;;;;;;;5.20;3.00;;;;;;;;;;5026797;28;20197;-58
2021/05/17 07:02:20;;;;;;;5.57;3.37;;;;;;;;;;5022367;28;20190;-59
2021/05/17 07:04:48;;;;;;;7.27;3.17;;;;;;;;;;5028607;28;20194;-57
2021/05/17 07:07:17;;;;;;;4.40;2.77;;;;;;;;;;5024462;28;20222;-61
2021/05/17 07:12:29;;;;;;;3.60;2.33;;;;;;;;;;5022377;28;20693;-58
2021/05/17 07:14:58;;;;;;;3.83;2.72;;;;;;;;;;5017136;28;20190;-58
2021/05/17 07:17:25;;;;;;;3.45;2.17;;;;;;;;;;5017702;28;20210;-59
2021/05/17 07:19:55;;;;;;;2.80;2.30;;;;;;;;;;5023509;28;20226;-61
2021/05/17 07:25:12;;;;;;;4.47;2.67;;;;;;;;;;5023327;28;20249;-60
2021/05/17 07:27:42;;;;;;;4.35;2.72;;;;;;;;;;5023794;28;20198;-59
2021/05/17 07:30:08;;;;;;;3.17;2.40;;;;;;;;;;5024696;28;20183;-61
2021/05/17 07:32:34;;;;;;;2.90;2.30;;;;;;;;;;5022382;28;20237;-60
2021/05/17 07:35:01;;;;;;;3.65;2.30;;;;;;;;;;5023419;28;20231;-62
2021/05/17 07:37:29;;;;;;;3.50;2.42;;;;;;;;;;5025185;28;20207;-59
2021/05/17 07:39:56;;;;;;;2.65;2.35;;;;;;;;;;5029467;28;20205;-57
2021/05/17 07:42:26;;;;;;;4.60;3.15;;;;;;;;;;5025624;28;20202;-58
2021/05/17 07:44:51;;;;;;;3.80;2.13;;;;;;;;;;5025082;28;20273;-57
2021/05/17 07:47:17;;;;;;;4.22;2.53;;;;;;;;;;5017376;28;20699;-58
2021/05/17 07:49:56;;;;;;;4.18;2.90;;;;;;;;;;5017785;28;20183;-57
2021/05/17 07:52:22;;;;;;;2.58;2.35;;;;;;;;;;5018724;28;20198;-59
2021/05/17 07:54:50;;;;;;;2.95;2.08;;;;;;;;;;5020902;28;20186;-58
2021/05/17 07:57:16;;;;;;;3.30;2.35;;;;;;;;;;5022989;28;20249;-57
2021/05/17 07:59:43;;;;;;;2.63;2.30;;;;;;;;;;5005188;28;20202;-59
2021/05/17 08:02:20;;;;;;;4.38;2.15;;;;;;;;;;5023577;28;20195;-58
2021/05/17 08:04:46;;;;;;;3.70;2.53;;;;;;;;;;5022760;28;20193;-60
2021/05/17 08:07:13;;;;;;;4.00;2.35;;;;;;;;;;5022007;28;20637;-59
2021/05/17 08:09:38;;;;;;;2.53;2.13;;;;;;;;;;5022801;23;20577;-61
2021/05/17 08:12:11;;;;;;;2.72;2.08;;;;;;;;;;5020888;28;20194;-59
2021/05/17 08:14:36;;;;;;;4.47;2.30;;;;;;;;;;5019753;28;20225;-60
2021/05/17 08:17:06;;;;;;;3.60;2.20;;;;;;;;;;5018057;28;20195;-61
2021/05/17 08:19:33;;;;;;;3.20;1.77;;;;;;;;;;5018419;28;20252;-59
2021/05/17 08:22:01;;;;;;;3.40;1.80;;;;;;;;;;5019055;28;20260;-61
2021/05/17 08:24:29;;;;;;;2.63;2.20;;;;;;;;;;5020502;28;20726;-61
2021/05/17 08:26:58;;;;;;;4.30;2.60;;;;;;;;;;5019234;28;20576;-59
2021/05/17 08:29:26;;;;;;;4.20;2.17;;;;;;;;;;5018221;28;20186;-61
2021/05/17 08:31:53;;;;;;;7.43;2.47;;;;;;;;;;5018154;28;20197;-60
2021/05/17 08:34:22;;;;;;;3.53;2.37;;;;;;;;;;5018339;28;20196;-61
2021/05/17 08:36:48;;;;;;;5.90;2.33;;;;;;;;;;5016956;28;20214;-58
2021/05/17 08:39:13;;;;;;;5.00;2.60;;;;;;;;;;5020912;28;20241;-60
2021/05/17 08:41:41;;;;;;;4.90;2.30;;;;;;;;;;5017208;28;20571;-57
2021/05/17 08:44:07;;;;;;;1.80;1.70;;;;;;;;;;5018049;28;20667;-59
2021/05/17 08:46:33;;;;;;;3.03;2.00;;;;;;;;;;5016028;28;20280;-61
2021/05/17 08:49:02;;;;;;;4.20;2.43;;;;;;;;;;5017433;28;20193;-58
2021/05/17 08:51:31;;;;;;;2.30;1.80;;;;;;;;;;5017958;28;20596;-60
2021/05/17 08:54:01;;;;;;;2.50;2.00;;;;;;;;;;5017042;28;20201;-61
2021/05/17 08:56:31;;;;;;;2.60;1.63;;;;;;;;;;5014574;28;20182;-60
2021/05/17 08:59:02;;;;;;;2.30;2.03;;;;;;;;;;5016392;28;20209;-58
2021/05/17 09:01:32;;;;;;;4.80;2.27;;;;;;;;;;5031397;28;20263;-62
2021/05/17 09:04:06;;;;;;;4.97;2.50;;;;;;;;;;5016486;28;20208;-59
2021/05/17 09:06:38;;;;;;;4.80;2.77;;;;;;;;;;5016273;28;20215;-63
2021/05/17 09:09:24;;;;;;;4.53;3.03;;;;;;;;;;5020462;28;20224;-63
2021/05/17 09:11:50;;;;;;;5.60;3.07;;;;;;;;;;5020496;28;20182;-63
2021/05/17 09:14:18;;;;;;;4.97;2.88;;;;;;;;;;5022183;28;20704;-63
2021/05/17 09:16:56;;;;;;;6.63;3.00;;;;;;;;;;5021058;28;20190;-60
2021/05/17 09:19:25;;;;;;;4.90;3.07;;;;;;;;;;5021099;28;20230;-61
2021/05/17 09:22:10;;;;;;;4.27;3.63;;;;;;;;;;5021979;28;20195;-61
2021/05/17 09:24:52;;;;;;;6.27;3.70;;;;;;;;;;5021544;28;20211;-60
2021/05/17 09:27:31;;;;;;;7.33;3.40;;;;;;;;;;5021779;28;20340;-58
2021/05/17 09:30:01;;;;;;;5.97;3.63;;;;;;;;;;5020033;28;20217;-60
2021/05/17 09:32:31;;;;;;;6.70;3.73;;;;;;;;;;5021095;28;20217;-60
2021/05/17 09:35:13;;;;;;;7.20;4.20;;;;;;;;;;5021097;28;20670;-59
2021/05/17 09:37:59;;;;;;;6.00;3.63;;;;;;;;;;5022863;28;20229;-56
2021/05/17 09:40:28;;;;;;;6.33;4.50;;;;;;;;;;5018538;28;20211;-57
2021/05/17 09:43:15;;;;;;;5.60;4.00;;;;;;;;;;5021256;28;20218;-63
2021/05/17 09:45:45;;;;;;;3.87;3.17;;;;;;;;;;5019935;28;20203;-60
2021/05/17 09:48:16;;;;;;;6.20;4.07;;;;;;;;;;5021702;28;20572;-57
2021/05/17 09:51:15;;;;;;;4.97;3.60;;;;;;;;;;5020774;28;20709;-60
2021/05/17 09:53:49;;;;;;;6.37;4.37;;;;;;;;;;5020746;28;20233;-62
2021/05/17 09:56:24;;;;;;;7.00;4.13;;;;;;;;;;5019833;28;20191;-58
2021/05/17 09:58:57;;;;;;;4.90;3.50;;;;;;;;;;5020054;28;20689;-58
2021/05/17 10:01:25;;;;;;;8.70;3.80;;;;;;;;;;5021169;28;20217;-59
2021/05/17 10:03:54;;;;;;;5.13;3.67;;;;;;;;;;5020181;28;20197;-61
2021/05/17 10:06:26;;;;;;;4.23;3.47;;;;;;;;;;5019189;28;20220;-62
2021/05/17 10:08:55;;;;;;;3.77;2.90;;;;;;;;;;5020241;28;20646;-61
2021/05/17 10:11:23;;;;;;;4.37;3.23;;;;;;;;;;5021173;28;20244;-63
2021/05/17 10:13:49;;;;;;;4.07;2.53;;;;;;;;;;5019451;28;20187;-62
2021/05/17 10:16:23;;;;;;;4.13;2.10;;;;;;;;;;5019078;28;20186;-59
2021/05/17 10:18:51;;;;;;;2.08;1.88;;;;;;;;;;5020505;28;20241;-59
2021/05/17 10:21:22;;;;;;;3.05;2.30;;;;;;;;;;5019497;28;20299;-62
2021/05/17 10:23:50;;;;;;;2.85;2.20;;;;;;;;;;5019394;28;20294;-65
2021/05/17 10:26:25;;;;;;;2.30;1.88;;;;;;;;;;5019222;28;20225;-60
2021/05/17 10:28:55;;;;;;;5.75;2.70;;;;;;;;;;5020164;28;20297;-61
2021/05/17 10:31:23;;;;;;;2.85;1.92;;;;;;;;;;5019051;28;20208;-63
2021/05/17 10:34:03;;;;;;;3.45;2.88;;;;;;;;;;5018157;28;20636;-63
2021/05/17 10:36:54;;;;;;;2.90;1.98;;;;;;;;;;5019535;28;20619;-61
2021/05/17 10:39:24;;;;;;;1.77;1.65;;;;;;;;;;5020441;28;20550;-59
2021/05/17 10:48:18;;;;;;;1.88;1.35;;;;;;;;;;5021288;28;20264;-64
2021/05/17 10:50:48;;;;;;;2.65;1.30;;;;;;;;;;5019119;28;20264;-65
2021/05/17 10:53:52;;;;;;;2.60;1.08;;;;;;;;;;5020138;28;20686;-61
2021/05/17 10:56:40;;;;;;;1.95;1.20;;;;;;;;;;5018858;28;20708;-62
2021/05/17 11:01:55;;;;;;;1.95;1.25;;;;;;;;;;5020893;28;20185;-60
2021/05/17 11:04:30;;;;;;;2.47;1.15;;;;;;;;;;5018813;28;20226;-60
2021/05/17 11:07:20;;;;;;;1.30;1.20;;;;;;;;;;5020107;28;20214;-60
2021/05/17 11:09:56;;;;;;;2.15;1.40;;;;;;;;;;5019075;28;20222;-59
2021/05/17 11:12:30;;;;;;;1.83;1.10;;;;;;;;;;5020385;28;20213;-63
2021/05/17 11:15:10;;;;;;;3.58;1.17;;;;;;;;;;5019292;28;20206;-59
2021/05/17 11:18:07;;;;;;;1.38;1.10;;;;;;;;;;5020087;28;20283;-60
2021/05/17 11:20:43;;;;;;;1.95;1.02;;;;;;;;;;5007070;28;20596;-60
2021/05/17 11:23:16;;;;;;;1.80;1.30;;;;;;;;;;5024662;28;20658;-58
2021/05/17 11:25:49;;;;;;;2.47;1.33;;;;;;;;;;5024235;28;20236;-60
2021/05/17 11:28:42;;;;;;;2.03;1.23;;;;;;;;;;5024748;28;20222;-60
2021/05/17 11:34:02;;;;;;;0.80;0.70;;;;;;;;;;5027075;28;20194;-61
2021/05/17 11:36:31;;;;;;;1.07;0.80;;;;;;;;;;5017533;28;20183;-58
2021/05/17 11:39:28;;;;;;;0.50;0.50;;;;;;;;;;5021590;28;20179;-60
2021/05/17 11:41:56;;;;;;;1.83;1.20;;;;;;;;;;5021318;28;20210;-57
2021/05/17 11:44:23;;;;;;;1.73;0.90;;;;;;;;;;5019820;28;20272;-58
2021/05/17 11:47:00;;;;;;;1.43;1.20;;;;;;;;;;5019191;28;21948;-58
2021/05/17 11:49:31;;;;;;;2.60;1.20;;;;;;;;;;5020275;28;20194;-59
2021/05/17 11:51:58;;;;;;;1.43;1.00;;;;;;;;;;5017124;28;20190;-61
2021/05/17 11:54:32;;;;;;;1.07;0.90;;;;;;;;;;5018577;28;20194;-61
2021/05/17 11:57:06;;;;;;;3.37;1.47;;;;;;;;;;5017175;28;20244;-60
2021/05/17 11:59:35;;;;;;;1.27;0.77;;;;;;;;;;5020304;28;20759;-62
2021/05/17 12:02:06;;;;;;;1.63;0.97;;;;;;;;;;5020714;28;20293;-60
2021/05/17 12:04:34;;;;;;;0.80;0.80;;;;;;;;;;5019245;28;20190;-62
2021/05/17 12:07:05;;;;;;;2.90;1.15;;;;;;;;;;5019574;28;20202;-66
2021/05/17 12:09:42;;;;;;;1.83;1.00;;;;;;;;;;5019098;28;20260;-64
2021/05/17 12:12:13;;;;;;;3.10;1.20;;;;;;;;;;5020591;28;20193;-63
2021/05/17 12:14:45;;;;;;;1.47;0.83;;;;;;;;;;5019433;28;20191;-62
2021/05/17 12:17:21;;;;;;;1.00;0.90;;;;;;;;;;5018582;28;20194;-65
2021/05/17 12:19:50;;;;;;;1.93;0.80;;;;;;;;;;5018747;28;20206;-62
2021/05/17 12:22:26;;;;;;;5.23;1.30;;;;;;;;;;5020755;28;20303;-59
2021/05/17 12:24:54;;;;;;;3.20;1.17;;;;;;;;;;5019541;28;20197;-60
2021/05/17 12:27:25;;;;;;;2.43;1.20;;;;;;;;;;5019214;28;20209;-59
2021/05/17 12:29:59;;;;;;;4.50;1.00;;;;;;;;;;5020009;28;20206;-62
2021/05/17 12:32:36;;;;;;;1.80;1.10;;;;;;;;;;5019492;28;20198;-60
2021/05/17 12:35:23;;;;;;;2.07;0.77;;;;;;;;;;5019003;28;20276;-61
2021/05/17 12:37:52;;;;;;;1.80;1.00;;;;;;;;;;5020009;28;20248;-64
2021/05/17 12:40:31;;;;;;;3.03;0.90;;;;;;;;;;5018984;28;20749;-61
2021/05/17 12:43:12;;;;;;;1.67;1.10;;;;;;;;;;5021623;28;20743;-64
2021/05/17 12:45:47;;;;;;;2.40;1.23;;;;;;;;;;5024147;28;20260;-61
2021/05/17 12:48:24;;;;;;;1.60;1.33;;;;;;;;;;5023993;28;20724;-61
2021/05/17 12:51:11;;;;;;;1.60;1.30;;;;;;;;;;5021704;28;20224;-62
2021/05/17 12:53:39;;;;;;;1.80;1.50;;;;;;;;;;5023830;28;20182;-61
2021/05/17 12:56:07;;;;;;;1.60;1.30;;;;;;;;;;5024358;28;20182;-62
2021/05/17 12:58:37;;;;;;;1.45;1.23;;;;;;;;;;5022015;28;20197;-59
2021/05/17 13:01:17;;;;;;;1.75;1.20;;;;;;;;;;5023814;28;20301;-62
2021/05/17 13:04:00;;;;;;;3.05;1.15;;;;;;;;;;5021651;28;20214;-63
2021/05/17 13:06:30;;;;;;;1.45;1.27;;;;;;;;;;5023840;28;20210;-65
2021/05/17 13:09:00;;;;;;;0.82;0.80;;;;;;;;;;5022377;28;20277;-66
2021/05/17 13:11:30;;;;;;;1.42;0.90;;;;;;;;;;5021121;28;20814;-63
2021/05/17 13:14:12;;;;;;;2.27;0.83;;;;;;;;;;5022912;28;20322;-62
2021/05/17 13:16:43;;;;;;;0.67;0.60;;;;;;;;;;5018199;28;20202;-61
2021/05/17 13:30:48;;;;;;;1.97;1.00;;;;;;;;;;5019384;28;20214;-58
2021/05/17 13:33:32;;;;;;;1.63;1.00;;;;;;;;;;5019709;28;21055;-62
2021/05/17 13:36:12;;;;;;;0.90;0.90;;;;;;;;;;5018431;28;20270;-60
2021/05/17 13:38:45;;;;;;;1.67;1.20;;;;;;;;;;5017546;28;20198;-61
2021/05/17 13:41:15;;;;;;;1.47;1.07;;;;;;;;;;5015692;28;20284;-61
2021/05/17 13:43:42;;;;;;;1.23;1.03;;;;;;;;;;5018743;28;20183;-63
2021/05/17 13:46:11;;;;;;;1.77;0.70;;;;;;;;;;5015636;28;20223;-64
2021/05/17 13:48:51;;;;;;;0.80;0.67;;;;;;;;;;5018833;28;20217;-63
2021/05/17 13:51:25;;;;;;;1.15;0.70;;;;;;;;;;5018715;28;20260;-59
2021/05/17 13:53:56;;;;;;;0.60;0.60;;;;;;;;;;5016971;28;20240;-61
2021/05/17 13:56:24;;;;;;;0.60;0.50;;;;;;;;;;5019602;28;20194;-58
2021/05/17 13:58:49;;;;;;;0.50;0.50;;;;;;;;;;5017919;28;20283;-58
2021/05/17 14:01:17;;;;;;;0.63;0.50;;;;;;;;;;5018325;28;22234;-60
2021/05/17 14:03:49;;;;;;;0.80;0.57;;;;;;;;;;5013873;28;20241;-59
2021/05/17 14:06:17;;;;;;;0.67;0.60;;;;;;;;;;5020127;28;20209;-59
2021/05/17 14:08:44;;;;;;;0.50;0.50;;;;;;;;;;5018312;28;20207;-60
2021/05/17 14:11:09;;;;;;;0.50;0.50;;;;;;;;;;5016036;28;20581;-63
2021/05/17 14:13:37;;;;;;;0.95;0.50;;;;;;;;;;5018002;28;20195;-59
2021/05/17 14:16:07;;;;;;;1.00;0.60;;;;;;;;;;5016027;28;20682;-61
2021/05/17 14:18:34;;;;;;;2.43;0.50;;;;;;;;;;5016948;28;20732;-60
2021/05/17 14:21:02;;;;;;;0.67;0.50;;;;;;;;;;5016081;28;20214;-60
2021/05/17 14:23:29;;;;;;;0.63;0.50;;;;;;;;;;5017517;28;20252;-60
2021/05/17 14:25:57;;;;;;;2.65;0.45;;;;;;;;;;5016983;28;20692;-61
2021/05/17 14:28:27;;;;;;;0.47;0.47;;;;;;;;;;5018420;28;20265;-59
2021/05/17 14:30:56;;;;;;;2.20;0.60;;;;;;;;;;5021997;28;20712;-60
2021/05/17 14:33:22;;;;;;;0.67;0.50;;;;;;;;;;5022056;28;20195;-60
2021/05/17 14:35:50;;;;;;;0.50;0.50;;;;;;;;;;5015923;28;20244;-58
2021/05/17 14:38:18;;;;;;;0.50;0.50;;;;;;;;;;5018597;28;22017;-59
2021/05/17 14:40:44;;;;;;;0.60;0.40;;;;;;;;;;5017976;28;20219;-58
2021/05/17 14:43:11;;;;;;;0.97;0.50;;;;;;;;;;5018415;28;20199;-59
2021/05/17 14:45:39;;;;;;;0.50;0.50;;;;;;;;;;5015231;28;20282;-59
2021/05/17 14:48:09;;;;;;;0.67;0.50;;;;;;;;;;5015991;28;20250;-60
2021/05/17 14:50:36;;;;;;;2.00;0.60;;;;;;;;;;5020792;28;20574;-61
2021/05/17 14:53:04;;;;;;;0.50;0.50;;;;;;;;;;5024320;28;20233;-58
2021/05/17 14:55:31;;;;;;;0.40;0.40;;;;;;;;;;5025908;28;20185;-60
2021/05/17 14:58:01;;;;;;;0.50;0.50;;;;;;;;;;5023533;28;20226;-60
2021/05/17 15:00:27;;;;;;;0.80;0.50;;;;;;;;;;5020209;28;20629;-59
2021/05/17 15:02:52;;;;;;;0.83;0.50;;;;;;;;;;5020898;28;20187;-60
2021/05/17 15:05:20;;;;;;;0.87;0.50;;;;;;;;;;5023976;28;20230;-60
2021/05/17 15:07:48;;;;;;;1.07;0.60;;;;;;;;;;5020005;28;20229;-61
2021/05/17 15:10:17;;;;;;;3.53;0.60;;;;;;;;;;5022693;28;20289;-60
2021/05/17 15:12:45;;;;;;;0.57;0.57;;;;;;;;;;5023770;28;20210;-60
2021/05/17 15:15:15;;;;;;;0.47;0.47;;;;;;;;;;5027180;28;20289;-59
2021/05/17 15:17:43;;;;;;;0.77;0.57;;;;;;;;;;5040672;23;20340;-59
2021/05/17 15:20:12;;;;;;;0.83;0.57;;;;;;;;;;5051260;28;20231;-59
2021/05/17 15:22:39;;;;;;;2.80;0.60;;;;;;;;;;5050960;28;20225;-59
2021/05/17 15:25:06;;;;;;;1.73;0.67;;;;;;;;;;5049959;28;20213;-60
2021/05/17 15:27:34;;;;;;;1.50;0.70;;;;;;;;;;5046293;28;20689;-59
2021/05/17 15:29:59;;;;;;;1.53;0.90;;;;;;;;;;5051369;28;20677;-62
2021/05/17 15:32:27;;;;;;;1.80;0.60;;;;;;;;;;5045431;28;20182;-64
2021/05/17 15:34:56;;;;;;;0.77;0.60;;;;;;;;;;5048573;28;20192;-60
2021/05/17 15:37:23;;;;;;;4.20;0.80;;;;;;;;;;5052161;28;20567;-59
2021/05/17 15:39:51;;;;;;;0.40;0.40;;;;;;;;;;5045102;28;20239;-58
2021/05/17 15:42:16;;;;;;;0.40;0.40;;;;;;;;;;5035356;28;20200;-58